createdAt,value
2017-04-03T00:00:41.737Z,64.10
2017-04-03T00:01:39.420Z,64.50
2017-04-03T00:02:37.138Z,64.20
2017-04-03T00:03:34.739Z,64.00
2017-04-03T00:04:32.379Z,64.30
2017-04-03T00:05:30.071Z,64.20
2017-04-03T00:06:28.774Z,64.00
2017-04-03T00:07:26.487Z,64.40
2017-04-03T00:08:24.177Z,63.90
2017-04-03T00:09:21.795Z,63.90
2017-04-03T00:10:19.535Z,63.70
2017-04-03T00:11:17.207Z,63.80
2017-04-03T00:12:14.915Z,63.70
2017-04-03T00:13:12.594Z,63.70
2017-04-03T00:14:10.831Z,64.00
2017-04-03T00:15:09.342Z,64.10
2017-04-03T00:16:06.955Z,64.00
2017-04-03T00:17:04.590Z,64.00
2017-04-03T00:18:02.231Z,64.40
2017-04-03T00:18:59.878Z,65.30
2017-04-03T00:19:57.515Z,64.30
2017-04-03T00:20:55.495Z,64.40
2017-04-03T00:21:53.154Z,64.50
2017-04-03T00:22:50.758Z,64.50
2017-04-03T00:23:48.398Z,64.50
2017-04-03T00:24:46.186Z,64.70
2017-04-03T00:25:43.950Z,64.90
2017-04-03T00:26:41.595Z,64.90
2017-04-03T00:27:39.241Z,64.90
2017-04-03T00:28:36.872Z,64.70
2017-04-03T00:29:34.502Z,64.90
2017-04-03T00:30:33.531Z,64.60
2017-04-03T00:31:31.146Z,65.40
2017-04-03T00:32:28.747Z,65.50
2017-04-03T00:33:27.448Z,65.60
2017-04-03T00:34:25.093Z,65.80
2017-04-03T00:35:22.792Z,65.80
2017-04-03T00:36:20.486Z,65.80
2017-04-03T00:37:18.111Z,66.10
2017-04-03T00:38:15.774Z,66.60
2017-04-03T00:39:13.475Z,66.50
2017-04-03T00:40:11.567Z,66.40
2017-04-03T00:41:09.240Z,66.50
2017-04-03T00:42:06.877Z,66.20
2017-04-03T00:43:04.470Z,66.10
2017-04-03T00:44:02.103Z,65.80
2017-04-03T00:44:59.723Z,65.50
2017-04-03T00:45:57.487Z,65.80
2017-04-03T00:46:56.079Z,65.40
2017-04-03T00:47:53.750Z,65.40
2017-04-03T00:48:52.279Z,65.30
2017-04-03T00:49:49.929Z,65.20
2017-04-03T00:50:47.887Z,65.70
2017-04-03T00:51:45.490Z,65.90
2017-04-03T00:52:44.299Z,65.30
2017-04-03T00:53:42.938Z,65.50
2017-04-03T00:54:40.624Z,65.50
2017-04-03T00:55:38.331Z,66.30
2017-04-03T00:56:36.053Z,66.50
2017-04-03T00:57:33.694Z,66.80
2017-04-03T00:58:31.363Z,67.00
2017-04-03T00:59:29.006Z,67.20
2017-04-03T01:00:26.800Z,67.50
2017-04-03T01:01:24.474Z,67.70
2017-04-03T01:02:22.251Z,68.00
2017-04-03T01:03:19.914Z,68.50
2017-04-03T01:04:17.587Z,68.60
2017-04-03T01:05:16.439Z,68.60
2017-04-03T01:06:14.171Z,68.50
2017-04-03T01:07:11.826Z,68.60
2017-04-03T01:08:09.445Z,68.10
2017-04-03T01:09:07.146Z,67.80
2017-04-03T01:10:05.099Z,68.50
2017-04-03T01:11:04.192Z,68.90
2017-04-03T01:12:01.803Z,68.70
2017-04-03T01:13:00.258Z,68.50
2017-04-03T01:13:57.907Z,68.80
2017-04-03T01:14:55.582Z,69.00
2017-04-03T01:15:53.291Z,68.80
2017-04-03T01:16:51.112Z,69.10
2017-04-03T01:17:48.716Z,68.70
2017-04-03T01:18:46.390Z,68.50
2017-04-03T01:19:44.070Z,68.80
2017-04-03T01:20:41.783Z,68.30
2017-04-03T01:21:39.464Z,67.80
2017-04-03T01:22:37.095Z,68.10
2017-04-03T01:23:34.731Z,66.80
2017-04-03T01:24:32.371Z,67.40
2017-04-03T01:25:30.433Z,66.90
2017-04-03T01:26:28.059Z,66.60
2017-04-03T01:27:25.742Z,67.10
2017-04-03T01:28:23.762Z,66.70
2017-04-03T01:29:21.418Z,66.60
2017-04-03T01:30:19.483Z,67.00
2017-04-03T01:31:17.111Z,67.00
2017-04-03T01:32:14.767Z,67.20
2017-04-03T01:33:12.442Z,67.40
2017-04-03T01:34:10.043Z,67.50
2017-04-03T01:35:08.251Z,67.40
2017-04-03T01:36:05.891Z,67.90
2017-04-03T01:37:03.557Z,66.80
2017-04-03T01:38:01.211Z,66.70
2017-04-03T01:38:58.859Z,66.50
2017-04-03T01:39:56.519Z,65.90
2017-04-03T01:40:54.566Z,66.10
2017-04-03T01:41:52.205Z,66.30
2017-04-03T01:42:49.786Z,66.00
2017-04-03T01:43:48.084Z,66.50
2017-04-03T01:44:45.711Z,65.70
2017-04-03T01:45:43.379Z,66.40
2017-04-03T01:46:41.071Z,66.90
2017-04-03T01:47:38.711Z,67.20
2017-04-03T01:48:36.337Z,66.80
2017-04-03T01:49:33.939Z,67.40
2017-04-03T01:50:31.625Z,67.50
2017-04-03T01:51:29.215Z,67.00
2017-04-03T01:52:27.154Z,66.80
2017-04-03T01:53:24.890Z,66.20
2017-04-03T01:54:23.363Z,66.10
2017-04-03T01:55:21.481Z,65.90
2017-04-03T01:56:19.139Z,65.60
2017-04-03T01:57:17.619Z,65.70
2017-04-03T01:58:15.392Z,65.80
2017-04-03T01:59:12.989Z,66.10
2017-04-03T02:00:10.754Z,66.50
2017-04-03T02:01:08.835Z,66.50
2017-04-03T02:02:06.524Z,66.60
2017-04-03T02:03:04.155Z,66.90
2017-04-03T02:04:01.832Z,67.50
2017-04-03T02:04:59.497Z,67.60
2017-04-03T02:05:58.183Z,67.20
2017-04-03T02:06:56.745Z,67.40
2017-04-03T02:07:54.417Z,67.40
2017-04-03T02:08:52.044Z,67.80
2017-04-03T02:09:49.717Z,67.40
2017-04-03T02:10:47.467Z,67.20
2017-04-03T02:11:45.110Z,67.20
2017-04-03T02:12:43.104Z,66.80
2017-04-03T02:13:41.542Z,66.50
2017-04-03T02:14:39.194Z,66.50
2017-04-03T02:15:36.914Z,66.40
2017-04-03T02:16:35.083Z,66.40
2017-04-03T02:17:32.759Z,66.40
2017-04-03T02:18:30.851Z,66.40
2017-04-03T02:19:28.502Z,66.40
2017-04-03T02:20:26.789Z,66.60
2017-04-03T02:21:24.458Z,66.50
2017-04-03T02:22:22.150Z,66.70
2017-04-03T02:23:19.811Z,67.00
2017-04-03T02:24:17.470Z,67.00
2017-04-03T02:25:15.514Z,67.00
2017-04-03T02:26:14.126Z,67.10
2017-04-03T02:27:11.768Z,67.30
2017-04-03T02:28:09.427Z,67.00
2017-04-03T02:29:07.064Z,66.90
2017-04-03T02:32:12.466Z,66.80
2017-04-03T02:33:10.119Z,66.80
2017-04-03T02:34:07.774Z,67.30
2017-04-03T02:35:05.779Z,67.50
2017-04-03T02:36:03.426Z,67.50
2017-04-03T02:37:01.095Z,67.30
2017-04-03T02:37:58.699Z,67.40
2017-04-03T02:38:56.302Z,67.30
2017-04-03T02:39:53.929Z,67.10
2017-04-03T02:40:51.890Z,67.10
2017-04-03T02:41:49.524Z,66.90
2017-04-03T02:42:47.114Z,66.80
2017-04-03T02:43:44.726Z,66.70
2017-04-03T02:44:42.329Z,67.00
2017-04-03T02:45:39.967Z,66.90
2017-04-03T02:46:37.624Z,66.90
2017-04-03T02:47:35.266Z,66.70
2017-04-03T02:48:33.502Z,66.70
2017-04-03T02:49:31.127Z,66.70
2017-04-03T02:50:28.887Z,66.80
2017-04-03T02:51:27.159Z,66.80
2017-04-03T02:52:24.854Z,66.70
2017-04-03T02:54:44.550Z,66.50
2017-04-03T02:55:42.178Z,66.80
2017-04-03T02:56:39.819Z,66.50
2017-04-03T02:57:37.493Z,66.60
2017-04-03T02:58:35.118Z,66.80
2017-04-03T02:59:32.735Z,66.90
2017-04-03T03:00:30.419Z,67.00
2017-04-03T03:01:28.047Z,67.10
2017-04-03T03:02:43.435Z,67.00
2017-04-03T03:03:44.864Z,67.10
2017-04-03T03:04:44.602Z,66.90
2017-04-03T03:05:42.286Z,66.80
2017-04-03T03:06:39.942Z,67.10
2017-04-03T03:07:37.559Z,67.20
2017-04-03T03:08:35.502Z,67.30
2017-04-03T03:09:33.110Z,67.00
2017-04-03T03:10:30.841Z,67.00
2017-04-03T03:11:28.481Z,67.00
2017-04-03T03:12:26.087Z,66.90
2017-04-03T03:13:24.082Z,67.40
2017-04-03T03:14:22.274Z,67.40
2017-04-03T03:15:19.939Z,67.50
2017-04-03T03:16:17.595Z,67.20
2017-04-03T03:17:15.215Z,67.20
2017-04-03T03:18:12.937Z,67.20
2017-04-03T03:19:10.608Z,67.10
2017-04-03T03:20:08.695Z,67.00
2017-04-03T03:21:06.338Z,66.90
2017-04-03T03:22:04.028Z,66.90
2017-04-03T03:23:01.686Z,66.80
2017-04-03T03:23:59.339Z,67.00
2017-04-03T03:24:56.942Z,67.00
2017-04-03T03:25:55.066Z,67.10
2017-04-03T03:26:52.678Z,67.10
2017-04-03T03:27:50.297Z,67.00
2017-04-03T03:29:40.808Z,67.30
2017-04-03T03:30:38.471Z,67.10
2017-04-03T03:31:36.198Z,67.10
2017-04-03T03:32:33.822Z,67.40
2017-04-03T03:33:31.474Z,67.30
2017-04-03T03:34:29.127Z,67.00
2017-04-03T03:35:26.826Z,66.80
2017-04-03T03:36:24.494Z,66.80
2017-04-03T03:37:22.574Z,67.00
2017-04-03T03:38:20.246Z,67.00
2017-04-03T03:39:17.891Z,67.00
2017-04-03T03:40:15.586Z,67.50
2017-04-03T03:41:13.218Z,67.90
2017-04-03T03:42:10.863Z,68.20
2017-04-03T03:43:08.534Z,68.30
2017-04-03T03:44:06.182Z,68.00
2017-04-03T03:45:04.198Z,67.90
2017-04-03T03:46:01.827Z,67.90
2017-04-03T03:46:59.449Z,67.60
2017-04-03T03:47:57.102Z,67.70
2017-04-03T03:48:54.710Z,67.70
2017-04-03T03:49:52.327Z,68.10
2017-04-03T03:50:50.022Z,67.80
2017-04-03T03:51:47.706Z,67.60
2017-04-03T03:52:45.371Z,67.30
2017-04-03T03:53:43.003Z,67.20
2017-04-03T03:54:40.614Z,67.20
2017-04-03T03:55:40.438Z,67.00
2017-04-03T03:56:43.667Z,67.00
2017-04-03T03:57:46.863Z,67.60
2017-04-03T03:58:50.066Z,67.20
2017-04-03T03:59:47.698Z,67.60
2017-04-03T04:00:45.402Z,67.80
2017-04-03T04:01:43.074Z,68.20
2017-04-03T04:02:40.721Z,68.20
2017-04-03T04:03:38.370Z,68.20
2017-04-03T04:04:36.012Z,68.00
2017-04-03T04:05:34.028Z,68.10
2017-04-03T04:06:31.654Z,68.10
2017-04-03T04:07:29.242Z,68.10
2017-04-03T04:08:26.926Z,68.40
2017-04-03T04:09:24.644Z,68.20
2017-04-03T04:10:22.807Z,68.50
2017-04-03T04:11:20.501Z,68.40
2017-04-03T04:12:18.878Z,68.30
2017-04-03T04:13:16.526Z,68.00
2017-04-03T04:14:14.187Z,68.10
2017-04-03T04:15:11.904Z,67.90
2017-04-03T04:16:10.307Z,67.70
2017-04-03T04:17:07.968Z,68.00
2017-04-03T04:18:05.631Z,68.20
2017-04-03T04:19:03.242Z,68.00
2017-04-03T04:20:01.776Z,67.90
2017-04-03T04:20:59.446Z,67.40
2017-04-03T04:21:57.050Z,67.50
2017-04-03T04:22:54.687Z,67.30
2017-04-03T04:23:52.294Z,67.40
2017-04-03T04:24:49.946Z,67.40
2017-04-03T04:25:48.027Z,67.40
2017-04-03T04:26:45.688Z,67.60
2017-04-03T04:27:43.287Z,67.50
2017-04-03T04:28:40.894Z,67.40
2017-04-03T04:29:38.524Z,67.20
2017-04-03T04:30:36.255Z,67.20
2017-04-03T04:31:33.870Z,67.40
2017-04-03T04:32:31.558Z,67.40
2017-04-03T04:33:29.167Z,67.40
2017-04-03T04:34:27.815Z,67.50
2017-04-03T04:35:26.046Z,67.70
2017-04-03T04:36:23.647Z,67.70
2017-04-03T04:37:21.286Z,67.60
2017-04-03T04:38:18.976Z,67.80
2017-04-03T04:39:17.524Z,67.70
2017-04-03T04:40:15.647Z,68.00
2017-04-03T04:41:13.287Z,68.00
2017-04-03T04:42:10.860Z,68.30
2017-04-03T04:43:08.515Z,68.40
2017-04-03T04:44:06.167Z,68.70
2017-04-03T04:45:03.798Z,69.30
2017-04-03T04:46:01.735Z,69.40
2017-04-03T04:46:59.358Z,69.20
2017-04-03T04:47:57.082Z,69.00
2017-04-03T04:48:54.682Z,68.90
2017-04-03T04:49:52.323Z,68.80
2017-04-03T04:50:49.991Z,68.80
2017-04-03T04:51:47.716Z,69.00
2017-04-03T04:52:45.378Z,68.80
2017-04-03T04:53:43.047Z,68.60
2017-04-03T04:54:40.647Z,68.40
2017-04-03T04:55:38.336Z,68.10
2017-04-03T04:56:35.983Z,67.90
2017-04-03T04:57:34.219Z,67.70
2017-04-03T04:58:31.847Z,67.80
2017-04-03T04:59:29.483Z,67.90
2017-04-03T05:00:27.227Z,68.20
2017-04-03T05:01:24.818Z,68.20
2017-04-03T05:02:22.785Z,68.10
2017-04-03T05:03:20.495Z,68.00
2017-04-03T05:04:18.154Z,68.00
2017-04-03T05:05:15.874Z,68.40
2017-04-03T05:06:13.524Z,68.00
2017-04-03T05:07:11.195Z,67.80
2017-04-03T05:08:09.814Z,67.50
2017-04-03T05:09:07.834Z,67.60
2017-04-03T05:10:05.503Z,67.80
2017-04-03T05:11:03.104Z,67.80
2017-04-03T05:12:01.774Z,67.70
2017-04-03T05:12:59.411Z,67.60
2017-04-03T05:13:57.038Z,67.40
2017-04-03T05:14:55.183Z,67.10
2017-04-03T05:15:52.865Z,66.90
2017-04-03T05:16:51.819Z,67.00
2017-04-03T05:17:49.446Z,66.90
2017-04-03T05:18:47.047Z,66.90
2017-04-03T05:20:07.752Z,66.70
2017-04-03T05:21:05.944Z,66.70
2017-04-03T05:22:05.148Z,66.80
2017-04-03T05:23:02.820Z,67.00
2017-04-03T05:24:00.475Z,66.70
2017-04-03T05:24:58.123Z,66.50
2017-04-03T05:25:55.895Z,66.40
2017-04-03T05:26:54.135Z,66.50
2017-04-03T05:27:51.802Z,66.50
2017-04-03T05:28:49.498Z,66.50
2017-04-03T05:29:47.158Z,66.60
2017-04-03T05:30:45.161Z,66.50
2017-04-03T05:31:42.811Z,66.30
2017-04-03T05:32:40.495Z,66.10
2017-04-03T05:33:38.151Z,66.10
2017-04-03T05:34:35.799Z,66.20
2017-04-03T05:35:33.523Z,66.30
2017-04-03T05:36:31.203Z,66.70
2017-04-03T05:37:28.862Z,66.50
2017-04-03T05:38:26.541Z,66.30
2017-04-03T05:39:24.228Z,66.10
2017-04-03T05:40:21.963Z,66.10
2017-04-03T05:41:19.636Z,65.90
2017-04-03T05:42:17.264Z,65.90
2017-04-03T05:43:15.220Z,65.90
2017-04-03T05:44:13.603Z,66.10
2017-04-03T05:45:11.338Z,66.00
2017-04-03T05:46:09.067Z,65.90
2017-04-03T05:47:07.674Z,66.20
2017-04-03T05:48:05.903Z,65.90
2017-04-03T05:49:06.532Z,66.00
2017-04-03T05:50:04.267Z,65.90
2017-04-03T05:51:01.951Z,65.60
2017-04-03T05:52:00.183Z,65.80
2017-04-03T05:52:57.846Z,65.60
2017-04-03T05:53:55.515Z,65.80
2017-04-03T05:54:53.141Z,65.50
2017-04-03T05:55:51.224Z,65.60
2017-04-03T05:56:49.459Z,65.40
2017-04-03T05:57:47.100Z,65.20
2017-04-03T05:58:45.258Z,65.10
2017-04-03T05:59:42.928Z,65.10
2017-04-03T06:00:40.603Z,64.80
2017-04-03T06:01:38.362Z,64.90
2017-04-03T06:02:36.027Z,64.60
2017-04-03T06:03:33.737Z,64.30
2017-04-03T06:04:32.156Z,64.40
2017-04-03T06:05:29.954Z,64.80
2017-04-03T06:06:27.626Z,64.50
2017-04-03T06:07:25.344Z,64.50
2017-04-03T06:08:23.691Z,64.50
2017-04-03T06:09:21.779Z,64.90
2017-04-03T06:10:19.663Z,65.00
2017-04-03T06:11:17.351Z,65.50
2017-04-03T06:12:15.963Z,65.90
2017-04-03T06:13:13.662Z,65.30
2017-04-03T06:14:11.339Z,65.90
2017-04-03T06:15:09.512Z,65.40
2017-04-03T06:16:07.215Z,65.00
2017-04-03T06:17:04.839Z,65.20
2017-04-03T06:18:04.075Z,65.50
2017-04-03T06:19:01.750Z,65.80
2017-04-03T06:20:00.008Z,65.30
2017-04-03T06:20:58.009Z,65.80
2017-04-03T06:21:55.676Z,65.50
2017-04-03T06:22:53.342Z,64.90
2017-04-03T06:23:50.975Z,65.30
2017-04-03T06:24:48.651Z,64.30
2017-04-03T06:25:46.428Z,64.80
2017-04-03T06:26:44.608Z,64.90
2017-04-03T06:27:42.992Z,65.30
2017-04-03T06:28:40.679Z,65.50
2017-04-03T06:29:38.512Z,65.20
2017-04-03T06:30:37.147Z,64.40
2017-04-03T06:31:34.835Z,65.00
2017-04-03T06:32:32.739Z,64.70
2017-04-03T06:33:30.380Z,64.40
2017-04-03T06:34:28.042Z,64.40
2017-04-03T06:35:25.742Z,65.10
2017-04-03T06:36:23.392Z,64.60
2017-04-03T06:37:21.038Z,64.00
2017-04-03T06:38:18.756Z,63.50
2017-04-03T06:39:17.042Z,64.00
2017-04-03T06:40:16.443Z,63.40
2017-04-03T06:41:14.715Z,64.10
2017-04-03T06:42:12.391Z,63.00
2017-04-03T06:43:10.071Z,62.80
2017-04-03T06:44:08.702Z,63.50
2017-04-03T06:45:06.848Z,63.00
2017-04-03T06:46:04.561Z,62.40
2017-04-03T06:47:03.103Z,62.80
2017-04-03T06:48:00.739Z,62.20
2017-04-03T06:48:58.427Z,62.90
2017-04-03T06:49:56.076Z,63.00
2017-04-03T06:50:54.194Z,63.90
2017-04-03T06:51:51.933Z,64.30
2017-04-03T06:52:49.627Z,64.40
2017-04-03T06:53:47.285Z,63.90
2017-04-03T06:54:46.002Z,65.10
2017-04-03T06:55:43.732Z,65.10
2017-04-03T06:56:42.982Z,64.00
2017-04-03T06:57:40.663Z,65.10
2017-04-03T06:58:38.363Z,65.30
2017-04-03T06:59:36.039Z,65.20
2017-04-03T07:00:33.796Z,65.00
2017-04-03T07:01:32.043Z,65.00
2017-04-03T07:02:30.309Z,64.80
2017-04-03T07:03:27.970Z,63.30
2017-04-03T07:04:25.691Z,63.90
2017-04-03T07:05:23.482Z,63.00
2017-04-03T07:06:21.132Z,64.00
2017-04-03T07:07:18.742Z,64.20
2017-04-03T07:08:16.456Z,64.40
2017-04-03T07:09:14.859Z,63.50
2017-04-03T07:10:12.627Z,62.40
2017-04-03T07:11:10.352Z,62.00
2017-04-03T07:12:08.036Z,61.90
2017-04-03T07:13:08.647Z,61.80
2017-04-03T07:14:06.931Z,62.20
2017-04-03T07:15:04.703Z,62.70
2017-04-03T07:16:02.407Z,62.70
2017-04-03T07:17:00.119Z,63.80
2017-04-03T07:17:57.893Z,64.30
2017-04-03T07:18:55.538Z,63.60
2017-04-03T07:19:53.224Z,63.00
2017-04-03T07:20:52.234Z,62.60
2017-04-03T07:21:49.870Z,63.00
2017-04-03T07:22:48.118Z,63.00
2017-04-03T07:23:45.798Z,63.00
2017-04-03T07:24:43.482Z,63.20
2017-04-03T07:25:41.207Z,63.90
2017-04-03T07:26:39.145Z,63.80
2017-04-03T07:27:36.847Z,63.90
2017-04-03T07:28:34.516Z,64.30
2017-04-03T07:29:32.200Z,64.70
2017-04-03T07:30:29.959Z,64.40
2017-04-03T07:31:27.671Z,64.50
2017-04-03T07:32:25.397Z,64.60
2017-04-03T07:33:23.108Z,65.40
2017-04-03T07:34:21.667Z,65.20
2017-04-03T07:35:19.758Z,64.60
2017-04-03T07:36:19.048Z,64.40
2017-04-03T07:37:16.727Z,64.50
2017-04-03T07:38:14.343Z,65.10
2017-04-03T07:39:12.055Z,65.20
2017-04-03T07:40:09.795Z,65.10
2017-04-03T07:41:07.540Z,64.60
2017-04-03T07:42:05.283Z,65.40
2017-04-03T07:43:02.978Z,65.70
2017-04-03T07:44:00.648Z,65.50
2017-04-03T07:44:58.294Z,65.50
2017-04-03T07:45:56.003Z,65.60
2017-04-03T07:46:53.639Z,66.20
2017-04-03T07:47:51.715Z,66.20
2017-04-03T07:48:50.405Z,66.20
2017-04-03T07:49:48.015Z,66.40
2017-04-03T07:50:46.003Z,67.00
2017-04-03T07:51:43.728Z,66.90
2017-04-03T07:52:41.375Z,66.90
2017-04-03T07:53:39.063Z,66.60
2017-04-03T07:54:36.775Z,66.90
2017-04-03T07:55:34.471Z,66.30
2017-04-03T07:56:32.116Z,66.10
2017-04-03T07:57:29.779Z,66.40
2017-04-03T07:58:27.488Z,65.30
2017-04-03T07:59:26.224Z,64.00
2017-04-03T08:00:24.771Z,64.40
2017-04-03T08:01:22.450Z,64.30
2017-04-03T08:02:20.173Z,63.50
2017-04-03T08:03:17.862Z,62.50
2017-04-03T08:04:15.566Z,62.40
2017-04-03T08:05:13.271Z,62.70
2017-04-03T08:06:10.943Z,62.20
2017-04-03T08:07:08.601Z,63.20
2017-04-03T08:08:06.285Z,62.70
2017-04-03T08:09:04.873Z,63.00
2017-04-03T08:10:03.120Z,63.10
2017-04-03T08:11:00.810Z,63.40
2017-04-03T08:11:58.473Z,63.10
2017-04-03T08:12:56.110Z,62.90
2017-04-03T08:13:54.646Z,62.90
2017-04-03T08:14:52.292Z,62.10
2017-04-03T08:15:51.073Z,62.50
2017-04-03T08:16:48.855Z,62.10
2017-04-03T08:17:46.527Z,61.50
2017-04-03T08:18:44.208Z,61.40
2017-04-03T08:19:41.895Z,61.40
2017-04-03T08:20:39.653Z,61.00
2017-04-03T08:21:37.288Z,60.70
2017-04-03T08:22:35.719Z,61.70
2017-04-03T08:23:33.390Z,61.40
2017-04-03T08:24:31.019Z,61.00
2017-04-03T08:25:29.222Z,61.60
2017-04-03T08:26:26.956Z,61.20
2017-04-03T08:27:24.647Z,61.20
2017-04-03T08:28:22.335Z,60.90
2017-04-03T08:29:20.036Z,60.50
2017-04-03T08:30:18.203Z,59.40
2017-04-03T08:31:15.829Z,59.50
2017-04-03T08:32:13.488Z,58.90
2017-04-03T08:33:11.132Z,58.50
2017-04-03T08:34:08.870Z,59.40
2017-04-03T08:35:06.643Z,59.00
2017-04-03T08:36:04.400Z,59.20
2017-04-03T08:37:02.686Z,58.50
2017-04-03T08:38:00.355Z,58.00
2017-04-03T08:38:58.071Z,56.80
2017-04-03T08:39:55.716Z,56.50
2017-04-03T08:40:53.467Z,56.40
2017-04-03T08:41:51.571Z,58.20
2017-04-03T08:42:49.358Z,57.30
2017-04-03T08:43:47.054Z,56.50
2017-04-03T08:44:44.715Z,56.00
2017-04-03T08:45:42.483Z,54.70
2017-04-03T08:46:40.940Z,55.20
2017-04-03T08:47:39.756Z,55.30
2017-04-03T08:48:37.443Z,55.40
2017-04-03T08:49:35.128Z,56.00
2017-04-03T08:50:33.843Z,55.20
2017-04-03T08:51:31.461Z,55.10
2017-04-03T08:52:29.072Z,54.20
2017-04-03T08:53:26.791Z,53.90
2017-04-03T08:54:24.467Z,54.50
2017-04-03T08:55:22.508Z,54.50
2017-04-03T08:56:20.245Z,54.00
2017-04-03T08:57:17.935Z,53.70
2017-04-03T08:58:15.724Z,54.70
2017-04-03T08:59:13.420Z,55.00
2017-04-03T09:00:11.174Z,55.00
2017-04-03T09:01:08.919Z,53.20
2017-04-03T09:02:06.596Z,53.40
2017-04-03T09:03:04.359Z,53.40
2017-04-03T09:04:01.995Z,52.90
2017-04-03T09:04:59.670Z,52.20
2017-04-03T09:05:57.415Z,51.90
2017-04-03T09:06:55.103Z,53.10
2017-04-03T09:07:52.758Z,53.40
2017-04-03T09:08:50.457Z,55.20
2017-04-03T09:09:48.168Z,54.80
2017-04-03T09:10:45.916Z,55.20
2017-04-03T09:11:43.599Z,55.90
2017-04-03T09:12:41.562Z,55.30
2017-04-03T09:13:39.218Z,54.70
2017-04-03T09:14:36.893Z,54.70
2017-04-03T09:15:34.648Z,54.30
2017-04-03T09:16:32.891Z,54.20
2017-04-03T09:17:30.596Z,53.70
2017-04-03T09:18:28.682Z,53.30
2017-04-03T09:19:26.388Z,52.90
2017-04-03T09:20:24.154Z,53.30
2017-04-03T09:21:21.915Z,52.60
2017-04-03T09:22:19.592Z,52.30
2017-04-03T09:23:17.634Z,52.10
2017-04-03T09:24:15.695Z,51.00
2017-04-03T09:25:13.464Z,50.20
2017-04-03T09:26:11.190Z,50.40
2017-04-03T09:27:08.875Z,49.20
2017-04-03T09:28:08.661Z,49.30
2017-04-03T09:29:06.312Z,49.70
2017-04-03T09:30:04.474Z,49.70
2017-04-03T09:31:02.191Z,49.60
2017-04-03T09:31:59.878Z,48.70
2017-04-03T09:32:57.586Z,49.40
2017-04-03T09:33:55.309Z,47.60
2017-04-03T09:34:52.948Z,48.30
2017-04-03T09:35:52.020Z,47.70
2017-04-03T09:36:49.759Z,47.00
2017-04-03T09:37:47.377Z,47.30
2017-04-03T09:38:45.037Z,46.30
2017-04-03T09:39:42.704Z,47.30
2017-04-03T09:40:40.440Z,47.20
2017-04-03T09:41:38.152Z,47.20
2017-04-03T09:42:35.841Z,46.30
2017-04-03T09:43:33.572Z,47.50
2017-04-03T09:44:31.880Z,47.60
2017-04-03T09:45:29.667Z,47.90
2017-04-03T09:46:27.484Z,48.00
2017-04-03T09:47:25.205Z,47.10
2017-04-03T09:48:22.894Z,46.90
2017-04-03T09:49:20.555Z,46.60
2017-04-03T09:50:18.727Z,47.00
2017-04-03T09:51:17.157Z,47.00
2017-04-03T09:52:14.935Z,48.40
2017-04-03T09:53:12.622Z,47.30
2017-04-03T09:54:10.326Z,47.40
2017-04-03T09:55:08.099Z,46.50
2017-04-03T09:56:06.100Z,46.50
2017-04-03T09:57:03.751Z,46.90
2017-04-03T09:58:01.448Z,46.40
2017-04-03T09:58:59.128Z,46.10
2017-04-03T09:59:56.864Z,45.20
2017-04-03T10:00:54.598Z,45.00
2017-04-03T10:01:52.288Z,44.00
2017-04-03T10:02:49.943Z,44.60
2017-04-03T10:03:47.615Z,42.70
2017-04-03T10:04:45.323Z,41.70
2017-04-03T10:05:43.426Z,42.50
2017-04-03T10:06:42.379Z,43.00
2017-04-03T10:07:40.058Z,43.70
2017-04-03T10:08:37.699Z,43.80
2017-04-03T10:09:35.465Z,43.60
2017-04-03T10:10:33.171Z,43.30
2017-04-03T10:11:32.665Z,43.80
2017-04-03T10:12:30.362Z,43.80
2017-04-03T10:13:28.019Z,43.90
2017-04-03T10:14:25.714Z,43.60
2017-04-03T10:15:23.468Z,42.90
2017-04-03T10:16:21.782Z,43.50
2017-04-03T10:17:19.504Z,42.90
2017-04-03T10:18:17.136Z,42.60
2017-04-03T10:19:14.767Z,42.80
2017-04-03T10:20:12.640Z,43.10
2017-04-03T10:21:10.291Z,43.80
2017-04-03T10:22:08.540Z,44.10
2017-04-03T10:23:06.475Z,44.00
2017-04-03T10:24:04.166Z,43.60
2017-04-03T10:25:01.867Z,44.30
2017-04-03T10:25:59.596Z,44.10
2017-04-03T10:26:57.251Z,44.50
2017-04-03T10:27:54.894Z,44.70
2017-04-03T10:28:52.515Z,44.40
2017-04-03T10:29:51.187Z,44.00
2017-04-03T10:30:49.315Z,44.60
2017-04-03T10:31:47.695Z,44.40
2017-04-03T10:32:45.355Z,44.60
2017-04-03T10:33:43.018Z,44.50
2017-04-03T10:34:40.681Z,44.10
2017-04-03T10:35:38.416Z,43.70
2017-04-03T10:36:36.380Z,44.30
2017-04-03T10:37:34.085Z,43.80
2017-04-03T10:38:31.795Z,43.50
2017-04-03T10:39:29.511Z,44.00
2017-04-03T10:40:27.568Z,44.40
2017-04-03T10:41:25.234Z,43.60
2017-04-03T10:42:22.912Z,43.20
2017-04-03T10:43:20.606Z,44.10
2017-04-03T10:44:18.246Z,43.40
2017-04-03T10:45:16.867Z,43.60
2017-04-03T10:46:14.531Z,43.80
2017-04-03T10:47:12.198Z,43.50
2017-04-03T10:48:10.366Z,43.20
2017-04-03T10:49:15.895Z,42.90
2017-04-03T10:50:13.648Z,42.10
2017-04-03T10:51:11.407Z,41.90
2017-04-03T10:52:09.123Z,42.20
2017-04-03T10:53:07.404Z,43.10
2017-04-03T10:54:05.051Z,43.60
2017-04-03T10:55:02.831Z,43.10
2017-04-03T10:56:00.507Z,43.30
2017-04-03T10:56:58.167Z,43.20
2017-04-03T10:57:55.834Z,42.60
2017-04-03T10:58:53.495Z,42.90
2017-04-03T10:59:51.119Z,42.90
2017-04-03T11:00:48.823Z,42.80
2017-04-03T11:01:47.243Z,41.30
2017-04-03T11:02:45.553Z,42.20
2017-04-03T11:03:43.246Z,42.40
2017-04-03T11:04:40.931Z,41.80
2017-04-03T11:05:38.691Z,43.10
2017-04-03T11:06:36.348Z,42.90
2017-04-03T11:07:34.032Z,43.40
2017-04-03T11:08:31.687Z,44.10
2017-04-03T11:09:29.426Z,43.60
2017-04-03T11:10:27.694Z,43.30
2017-04-03T11:11:25.359Z,42.80
2017-04-03T11:12:23.100Z,42.40
2017-04-03T11:13:20.800Z,42.30
2017-04-03T11:14:18.446Z,42.90
2017-04-03T11:15:16.750Z,42.70
2017-04-03T11:16:14.491Z,42.30
2017-04-03T11:17:12.227Z,43.50
2017-04-03T11:18:09.947Z,44.00
2017-04-03T11:19:07.614Z,44.10
2017-04-03T11:20:06.367Z,43.10
2017-04-03T11:21:04.088Z,42.90
2017-04-03T11:22:01.807Z,42.50
2017-04-03T11:22:59.536Z,41.40
2017-04-03T11:23:57.211Z,41.50
2017-04-03T11:24:54.887Z,41.90
2017-04-03T11:25:52.971Z,42.10
2017-04-03T11:26:50.618Z,41.60
2017-04-03T11:27:48.299Z,40.80
2017-04-03T11:28:45.963Z,40.00
2017-04-03T11:29:43.606Z,39.40
2017-04-03T11:30:41.328Z,39.70
2017-04-03T11:31:39.071Z,40.00
2017-04-03T11:32:37.191Z,39.90
2017-04-03T11:33:36.463Z,38.30
2017-04-03T11:34:34.152Z,37.80
2017-04-03T11:35:31.986Z,38.70
2017-04-03T11:36:29.752Z,38.90
2017-04-03T11:37:27.814Z,40.10
2017-04-03T11:38:25.542Z,40.30
2017-04-03T11:39:23.227Z,41.60
2017-04-03T11:40:21.577Z,41.40
2017-04-03T11:41:19.271Z,41.30
2017-04-03T11:42:16.958Z,41.50
2017-04-03T11:43:14.846Z,40.60
2017-04-03T11:44:12.574Z,41.10
2017-04-03T11:45:15.996Z,40.70
2017-04-03T11:46:19.380Z,40.00
2017-04-03T11:47:23.675Z,40.40
2017-04-03T11:48:26.119Z,39.80
2017-04-03T11:49:29.470Z,39.40
2017-04-03T11:50:33.279Z,40.00
2017-04-03T11:51:37.208Z,38.60
2017-04-03T11:52:40.591Z,38.90
2017-04-03T11:54:10.686Z,38.20
2017-04-03T11:55:08.870Z,37.10
2017-04-03T11:56:07.001Z,36.70
2017-04-03T11:57:04.734Z,36.70
2017-04-03T11:58:02.432Z,36.50
2017-04-03T11:59:00.282Z,35.00
2017-04-03T11:59:59.027Z,34.00
2017-04-03T12:00:56.739Z,33.70
2017-04-03T12:01:54.853Z,34.00
2017-04-03T12:02:52.528Z,33.10
2017-04-03T12:03:50.205Z,32.60
2017-04-03T12:04:48.050Z,32.20
2017-04-03T12:05:45.835Z,30.10
2017-04-03T12:06:44.075Z,31.30
2017-04-03T12:07:42.046Z,32.10
2017-04-03T12:08:40.347Z,31.90
2017-04-03T12:09:38.041Z,32.40
2017-04-03T12:10:35.796Z,32.90
2017-04-03T12:11:34.072Z,33.50
2017-04-03T12:12:31.792Z,32.60
2017-04-03T12:13:29.949Z,31.00
2017-04-03T12:14:27.619Z,31.90
2017-04-03T12:15:25.334Z,30.00
2017-04-03T12:16:23.048Z,29.20
2017-04-03T12:17:20.764Z,28.30
2017-04-03T12:18:19.087Z,28.10
2017-04-03T12:19:18.095Z,29.00
2017-04-03T12:20:15.910Z,29.00
2017-04-03T12:21:13.629Z,28.60
2017-04-03T12:22:11.366Z,28.50
2017-04-03T12:23:09.112Z,28.40
2017-04-03T12:24:06.846Z,27.40
2017-04-03T12:25:04.645Z,26.00
2017-04-03T12:26:02.343Z,25.00
2017-04-03T12:27:00.041Z,23.90
2017-04-03T12:27:57.714Z,23.70
2017-04-03T12:28:54.860Z,23.40
2017-04-03T12:29:52.070Z,23.10
2017-04-03T12:30:49.712Z,23.10
2017-04-03T12:31:48.315Z,24.20